createdAt,value
2017-03-22T00:00:53.030Z,30.26
2017-03-22T00:02:02.078Z,30.55
2017-03-22T00:03:10.798Z,30.16
2017-03-22T00:04:20.489Z,30.45
2017-03-22T00:05:29.858Z,30.26
2017-03-22T00:06:38.867Z,30.26
2017-03-22T00:07:47.635Z,30.64
2017-03-22T00:08:57.308Z,30.26
2017-03-22T00:10:06.390Z,30.55
2017-03-22T00:11:15.469Z,30.35
2017-03-22T00:12:24.536Z,30.45
2017-03-22T00:13:33.270Z,30.45
2017-03-22T00:14:42.305Z,30.45
2017-03-22T00:15:52.039Z,30.35
2017-03-22T00:17:01.105Z,30.45
2017-03-22T00:18:10.472Z,30.26
2017-03-22T00:19:19.502Z,30.35
2017-03-22T00:20:28.849Z,30.64
2017-03-22T00:21:37.570Z,30.45
2017-03-22T00:22:46.937Z,30.45
2017-03-22T00:23:57.228Z,30.45
2017-03-22T00:25:06.902Z,30.45
2017-03-22T00:26:16.267Z,30.74
2017-03-22T00:27:25.336Z,30.45
2017-03-22T00:28:34.995Z,30.45
2017-03-22T00:29:44.525Z,30.55
2017-03-22T00:30:53.901Z,30.45
2017-03-22T00:32:03.273Z,30.45
2017-03-22T00:33:12.942Z,30.55
2017-03-22T00:34:22.919Z,30.45
2017-03-22T00:35:32.273Z,30.35
2017-03-22T00:36:41.297Z,30.45
2017-03-22T00:37:50.669Z,30.74
2017-03-22T00:39:00.342Z,30.35
2017-03-22T00:40:09.711Z,30.55
2017-03-22T00:41:18.475Z,30.45
2017-03-22T00:42:27.835Z,30.35
2017-03-22T00:43:37.412Z,30.74
2017-03-22T00:44:46.787Z,30.83
2017-03-22T00:45:56.472Z,30.74
2017-03-22T00:47:05.548Z,30.64
2017-03-22T00:48:15.231Z,30.55
2017-03-22T00:49:24.314Z,30.64
2017-03-22T00:50:33.993Z,30.64
2017-03-22T00:51:43.056Z,30.74
2017-03-22T00:52:52.155Z,30.74
2017-03-22T00:54:02.137Z,30.55
2017-03-22T00:55:11.483Z,30.74
2017-03-22T00:56:20.207Z,30.64
2017-03-22T00:57:28.967Z,30.64
2017-03-22T00:58:38.646Z,30.73
2017-03-22T00:59:48.024Z,30.55
2017-03-22T01:00:57.392Z,30.55
2017-03-22T01:02:06.131Z,30.64
2017-03-22T01:03:15.737Z,30.64
2017-03-22T01:04:24.467Z,30.83
2017-03-22T01:05:33.839Z,30.64
2017-03-22T01:06:42.601Z,30.64
2017-03-22T01:07:51.660Z,30.73
2017-03-22T01:09:01.641Z,30.73
2017-03-22T01:10:10.688Z,30.73
2017-03-22T01:11:19.684Z,30.63
2017-03-22T01:12:29.265Z,30.64
2017-03-22T01:13:38.330Z,30.63
2017-03-22T01:14:47.710Z,30.63
2017-03-22T01:15:57.402Z,30.73
2017-03-22T01:17:06.664Z,30.73
2017-03-22T01:18:16.045Z,30.53
2017-03-22T01:19:25.698Z,30.63
2017-03-22T01:20:35.026Z,30.82
2017-03-22T01:21:44.084Z,30.63
2017-03-22T01:22:53.379Z,30.53
2017-03-22T01:24:02.424Z,30.73
2017-03-22T01:25:11.465Z,30.63
2017-03-22T01:26:20.234Z,30.63
2017-03-22T01:27:29.618Z,30.63
2017-03-22T01:28:39.268Z,31.11
2017-03-22T01:29:48.902Z,30.53
2017-03-22T01:30:58.281Z,31.01
2017-03-22T01:32:07.650Z,30.63
2017-03-22T01:33:17.030Z,30.73
2017-03-22T01:34:27.286Z,30.63
2017-03-22T01:35:36.619Z,30.53
2017-03-22T01:36:45.654Z,30.73
2017-03-22T01:37:54.975Z,30.63
2017-03-22T01:39:04.963Z,30.63
2017-03-22T01:40:14.639Z,31.11
2017-03-22T01:41:23.371Z,30.53
2017-03-22T01:42:32.392Z,30.82
2017-03-22T01:43:41.169Z,30.63
2017-03-22T01:44:51.140Z,30.63
2017-03-22T01:46:01.117Z,30.63
2017-03-22T01:47:10.508Z,30.73
2017-03-22T01:48:19.575Z,30.73
2017-03-22T01:49:29.564Z,30.53
2017-03-22T01:50:38.624Z,30.53
2017-03-22T01:51:47.689Z,30.63
2017-03-22T01:52:57.053Z,31.11
2017-03-22T01:54:06.437Z,30.53
2017-03-22T01:55:15.809Z,30.53
2017-03-22T01:56:24.569Z,30.63
2017-03-22T01:57:33.639Z,31.01
2017-03-22T01:58:43.320Z,30.73
2017-03-22T01:59:52.688Z,31.01
2017-03-22T02:01:01.926Z,30.53
2017-03-22T02:02:10.657Z,30.53
2017-03-22T02:03:20.029Z,30.43
2017-03-22T02:04:29.910Z,30.73
2017-03-22T02:05:38.986Z,30.53
2017-03-22T02:06:47.750Z,30.63
2017-03-22T02:07:56.825Z,30.53
2017-03-22T02:09:06.204Z,30.53
2017-03-22T02:10:15.575Z,30.53
2017-03-22T02:11:24.631Z,30.53
2017-03-22T02:12:33.667Z,30.53
2017-03-22T02:13:42.693Z,30.53
2017-03-22T02:14:52.040Z,30.53
2017-03-22T02:16:01.372Z,30.63
2017-03-22T02:17:10.108Z,30.43
2017-03-22T02:18:18.840Z,31.3
2017-03-22T02:19:28.530Z,31.01
2017-03-22T02:20:37.903Z,30.43
2017-03-22T02:21:46.673Z,30.53
2017-03-22T02:22:55.743Z,31.11
2017-03-22T02:24:05.402Z,30.43
2017-03-22T02:25:15.031Z,31.21
2017-03-22T02:26:23.767Z,31.11
2017-03-22T02:27:33.089Z,30.43
2017-03-22T02:28:43.057Z,31.01
2017-03-22T02:29:52.691Z,30.43
2017-03-22T02:31:01.735Z,30.43
2017-03-22T02:32:10.496Z,30.34
2017-03-22T02:33:19.266Z,30.34
2017-03-22T02:34:28.646Z,30.82
2017-03-22T02:35:37.815Z,30.43
2017-03-22T02:36:46.853Z,30.43
2017-03-22T02:37:56.180Z,30.43
2017-03-22T02:39:06.065Z,30.82
2017-03-22T02:40:15.104Z,30.91
2017-03-22T02:41:24.467Z,30.34
2017-03-22T02:42:33.533Z,30.82
2017-03-22T02:43:43.467Z,30.43
2017-03-22T02:44:52.540Z,30.82
2017-03-22T02:46:02.229Z,30.73
2017-03-22T02:47:11.297Z,30.82
2017-03-22T02:48:20.364Z,30.73
2017-03-22T02:49:30.352Z,30.71
2017-03-22T02:50:39.436Z,30.82
2017-03-22T02:51:48.804Z,30.8
2017-03-22T02:52:57.612Z,30.82
2017-03-22T02:54:06.993Z,30.82
2017-03-22T02:55:16.667Z,30.82
2017-03-22T02:56:25.726Z,30.82
2017-03-22T02:57:35.103Z,30.82
2017-03-22T02:58:44.995Z,30.82
2017-03-22T02:59:54.324Z,30.91
2017-03-22T03:01:04.006Z,30.71
2017-03-22T03:02:12.773Z,30.82
2017-03-22T03:03:22.149Z,30.8
2017-03-22T03:04:31.829Z,30.8
2017-03-22T03:05:40.593Z,30.8
2017-03-22T03:06:49.646Z,30.71
2017-03-22T03:07:58.399Z,30.8
2017-03-22T03:09:07.159Z,30.8
2017-03-22T03:10:17.243Z,30.9
2017-03-22T03:11:26.612Z,30.71
2017-03-22T03:12:36.141Z,30.8
2017-03-22T03:13:46.394Z,30.8
2017-03-22T03:14:56.624Z,30.8
2017-03-22T03:16:05.695Z,30.8
2017-03-22T03:17:15.056Z,30.8
2017-03-22T03:18:24.427Z,30.8
2017-03-22T03:19:33.501Z,30.8
2017-03-22T03:20:43.475Z,30.8
2017-03-22T03:21:52.540Z,30.8
2017-03-22T03:23:02.220Z,30.8
2017-03-22T03:24:11.300Z,30.71
2017-03-22T03:25:20.970Z,30.71
2017-03-22T03:26:29.708Z,30.61
2017-03-22T03:27:39.033Z,30.71
2017-03-22T03:28:48.721Z,30.61
2017-03-22T03:29:58.730Z,30.61
2017-03-22T03:31:08.054Z,30.61
2017-03-22T03:32:17.125Z,30.71
2017-03-22T03:33:26.473Z,30.9
2017-03-22T03:34:36.448Z,30.8
2017-03-22T03:35:45.529Z,30.52
2017-03-22T03:36:54.289Z,30.61
2017-03-22T03:38:03.905Z,30.61
2017-03-22T03:39:12.716Z,30.8
2017-03-22T03:40:21.779Z,30.71
2017-03-22T03:41:30.545Z,30.71
2017-03-22T03:42:39.310Z,30.71
2017-03-22T03:43:48.401Z,30.71
2017-03-22T03:44:58.390Z,30.8
2017-03-22T03:46:07.150Z,30.8
2017-03-22T03:47:15.911Z,30.8
2017-03-22T03:48:25.175Z,31
2017-03-22T03:49:34.859Z,30.8
2017-03-22T03:50:44.223Z,30.71
2017-03-22T03:51:53.606Z,30.71
2017-03-22T03:53:02.675Z,30.8
2017-03-22T03:54:12.347Z,31
2017-03-22T03:55:21.419Z,31
2017-03-22T03:56:31.097Z,30.71
2017-03-22T03:57:40.171Z,31
2017-03-22T03:58:50.152Z,31.09
2017-03-22T04:00:00.118Z,31.29
2017-03-22T04:01:08.879Z,30.9
2017-03-22T04:02:17.953Z,30.8
2017-03-22T04:03:27.295Z,31
2017-03-22T04:04:36.906Z,30.9
2017-03-22T04:05:46.275Z,31
2017-03-22T04:06:55.353Z,30.9
2017-03-22T04:08:04.729Z,31
2017-03-22T04:09:14.411Z,31
2017-03-22T04:10:23.156Z,31
2017-03-22T04:11:32.450Z,31
2017-03-22T04:12:41.514Z,30.9
2017-03-22T04:13:50.899Z,31.29
2017-03-22T04:15:00.564Z,31.29
2017-03-22T04:16:09.582Z,31.29
2017-03-22T04:17:18.312Z,31.29
2017-03-22T04:18:27.718Z,31.09
2017-03-22T04:19:37.403Z,31.09
2017-03-22T04:20:46.168Z,30.9
2017-03-22T04:21:54.928Z,31.29
2017-03-22T04:23:04.919Z,31.08
2017-03-22T04:24:14.605Z,31.18
2017-03-22T04:25:24.594Z,31
2017-03-22T04:26:33.367Z,31.27
2017-03-22T04:27:42.147Z,31.18
2017-03-22T04:28:51.786Z,31
2017-03-22T04:30:01.467Z,30.98
2017-03-22T04:31:10.193Z,30.98
2017-03-22T04:32:18.961Z,30.88
2017-03-22T04:33:28.343Z,31.29
2017-03-22T04:34:38.312Z,31.27
2017-03-22T04:35:47.027Z,30.98
2017-03-22T04:36:56.089Z,30.79
2017-03-22T04:38:05.769Z,30.88
2017-03-22T04:39:14.540Z,30.69
2017-03-22T04:40:24.227Z,30.79
2017-03-22T04:41:33.903Z,30.6
2017-03-22T04:42:42.949Z,30.5
2017-03-22T04:43:52.343Z,30.5
2017-03-22T04:45:02.307Z,30.5
2017-03-22T04:46:11.947Z,30.79
2017-03-22T04:47:21.322Z,30.79
2017-03-22T04:48:30.390Z,30.9
2017-03-22T04:49:39.766Z,30.88
2017-03-22T04:50:49.746Z,30.69
2017-03-22T04:51:58.810Z,30.69
2017-03-22T04:53:08.214Z,30.6
2017-03-22T04:54:17.594Z,30.79
2017-03-22T04:55:27.576Z,30.4
2017-03-22T04:56:36.378Z,30.98
2017-03-22T04:57:45.745Z,30.4
2017-03-22T04:58:55.430Z,30.88
2017-03-22T05:00:04.513Z,30.42
2017-03-22T05:01:13.760Z,30.8
2017-03-22T05:02:22.477Z,30.79
2017-03-22T05:03:31.853Z,30.9
2017-03-22T05:04:41.502Z,30.42
2017-03-22T05:05:50.245Z,31
2017-03-22T05:06:59.270Z,30.88
2017-03-22T05:08:08.336Z,30.98
2017-03-22T05:09:18.022Z,31.08
2017-03-22T05:10:27.675Z,31.09
2017-03-22T05:11:36.399Z,30.4
2017-03-22T05:12:45.438Z,30.4
2017-03-22T05:13:55.072Z,30.4
2017-03-22T05:15:04.493Z,30.52
2017-03-22T05:16:13.425Z,30.61
2017-03-22T05:17:22.463Z,30.61
2017-03-22T05:18:31.838Z,30.71
2017-03-22T05:19:41.207Z,30.61
2017-03-22T05:20:50.909Z,30.9
2017-03-22T05:21:59.925Z,30.71
2017-03-22T05:23:08.698Z,30.9
2017-03-22T05:24:19.187Z,30.71
2017-03-22T05:25:28.844Z,30.71
2017-03-22T05:26:38.119Z,30.61
2017-03-22T05:27:47.196Z,30.8
2017-03-22T05:28:56.879Z,30.32
2017-03-22T05:30:05.956Z,30.42
2017-03-22T05:31:14.920Z,30.52
2017-03-22T05:32:23.986Z,30.61
2017-03-22T05:33:32.721Z,30.32
2017-03-22T05:34:42.363Z,30.61
2017-03-22T05:35:52.324Z,30.32
2017-03-22T05:37:01.325Z,30.42
2017-03-22T05:38:10.350Z,30.22
2017-03-22T05:39:19.733Z,30.52
2017-03-22T05:40:29.424Z,30.13
2017-03-22T05:41:38.193Z,30.52
2017-03-22T05:42:47.569Z,30.61
2017-03-22T05:43:56.635Z,30.42
2017-03-22T05:45:05.716Z,30.22
2017-03-22T05:46:14.785Z,30.22
2017-03-22T05:47:23.554Z,30.22
2017-03-22T05:48:32.600Z,30.13
2017-03-22T05:49:42.235Z,29.94
2017-03-22T05:50:50.981Z,29.74
2017-03-22T05:51:59.983Z,29.74
2017-03-22T05:53:09.013Z,29.74
2017-03-22T05:54:18.087Z,29.84
2017-03-22T05:55:27.156Z,29.94
2017-03-22T05:56:36.225Z,29.84
2017-03-22T05:57:45.292Z,30.13
2017-03-22T05:58:55.199Z,30.13
2017-03-22T06:00:04.840Z,30.04
2017-03-22T06:01:14.221Z,30.04
2017-03-22T06:02:22.991Z,30.15
2017-03-22T06:03:31.762Z,30.04
2017-03-22T06:04:41.957Z,29.57
2017-03-22T06:05:51.017Z,29.84
2017-03-22T06:06:59.776Z,30.05
2017-03-22T06:08:09.142Z,30.05
2017-03-22T06:09:18.821Z,29.66
2017-03-22T06:10:28.498Z,29.66
2017-03-22T06:11:37.638Z,29.66
2017-03-22T06:12:46.637Z,29.95
2017-03-22T06:13:55.970Z,29.76
2017-03-22T06:15:04.734Z,29.76
2017-03-22T06:16:13.706Z,29.76
2017-03-22T06:17:23.036Z,29.86
2017-03-22T06:18:32.102Z,29.66
2017-03-22T06:19:41.174Z,29.76
2017-03-22T06:20:50.251Z,29.66
2017-03-22T06:21:59.320Z,29.47
2017-03-22T06:23:08.712Z,29.86
2017-03-22T06:24:18.082Z,29.76
2017-03-22T06:25:27.729Z,29.66
2017-03-22T06:26:36.449Z,29.38
2017-03-22T06:27:45.522Z,29.08
2017-03-22T06:28:54.594Z,29.47
2017-03-22T06:30:03.961Z,29.66
2017-03-22T06:31:12.726Z,29.57
2017-03-22T06:32:21.797Z,29.76
2017-03-22T06:33:32.073Z,29.76
2017-03-22T06:34:42.058Z,29.38
2017-03-22T06:35:51.037Z,29.58
2017-03-22T06:36:59.803Z,29.76
2017-03-22T06:38:09.180Z,29.1
2017-03-22T06:39:18.874Z,29.39
2017-03-22T06:40:28.867Z,29.49
2017-03-22T06:41:37.640Z,29.29
2017-03-22T06:42:46.406Z,28.91
2017-03-22T06:43:55.832Z,29.68
2017-03-22T06:45:05.210Z,28.91
2017-03-22T06:46:14.579Z,29.49
2017-03-22T06:47:23.951Z,29.2
2017-03-22T06:48:32.716Z,29.29
2017-03-22T06:49:42.393Z,29.1
2017-03-22T06:50:52.048Z,28.81
2017-03-22T06:52:01.049Z,29.2
2017-03-22T06:53:09.775Z,28.81
2017-03-22T06:54:19.421Z,29.1
2017-03-22T06:55:28.731Z,29.39
2017-03-22T06:56:37.448Z,28.62
2017-03-22T06:57:46.520Z,28.72
2017-03-22T06:58:55.886Z,29.1
2017-03-22T07:00:05.524Z,29
2017-03-22T07:01:15.200Z,29
2017-03-22T07:02:23.961Z,28.81
2017-03-22T07:03:33.633Z,28.91
2017-03-22T07:04:43.670Z,29
2017-03-22T07:05:52.432Z,28.72
2017-03-22T07:07:01.806Z,28.63
2017-03-22T07:08:10.578Z,28.72
2017-03-22T07:09:19.952Z,28.62
2017-03-22T07:10:29.037Z,28.25
2017-03-22T07:11:37.809Z,28.05
2017-03-22T07:12:47.187Z,28.15
2017-03-22T07:13:56.153Z,28.25
2017-03-22T07:15:05.836Z,28.25
2017-03-22T07:16:15.211Z,28.15
2017-03-22T07:17:24.922Z,27.76
2017-03-22T07:18:34.292Z,27.76
2017-03-22T07:19:44.258Z,27.67
2017-03-22T07:20:53.280Z,27.57
2017-03-22T07:22:02.018Z,27.76
2017-03-22T07:23:11.048Z,27.67
2017-03-22T07:24:21.232Z,27.38
2017-03-22T07:25:30.911Z,27.48
2017-03-22T07:26:40.255Z,27.28
2017-03-22T07:27:49.889Z,27.39
2017-03-22T07:28:59.274Z,27.28
2017-03-22T07:30:08.963Z,27
2017-03-22T07:31:18.010Z,27.19
2017-03-22T07:32:27.045Z,27.01
2017-03-22T07:33:36.095Z,26.91
2017-03-22T07:34:45.731Z,26.91
2017-03-22T07:35:55.417Z,26.91
2017-03-22T07:37:04.488Z,26.72
2017-03-22T07:38:13.835Z,26.81
2017-03-22T07:39:23.476Z,26.33
2017-03-22T07:40:33.162Z,26.54
2017-03-22T07:41:42.544Z,26.25
2017-03-22T07:42:51.907Z,26.06
2017-03-22T07:44:01.555Z,26.44
2017-03-22T07:45:10.610Z,25.86
2017-03-22T07:46:19.352Z,25.57
2017-03-22T07:47:28.697Z,25.29
2017-03-22T07:48:38.080Z,26.15
2017-03-22T07:49:47.187Z,25.59
2017-03-22T07:50:56.536Z,26.17
2017-03-22T07:52:05.610Z,25.78
2017-03-22T07:53:14.923Z,25.2
2017-03-22T07:54:24.236Z,25.1
2017-03-22T07:55:33.565Z,25.59
2017-03-22T07:56:42.305Z,25.2
2017-03-22T07:57:51.331Z,25.39
2017-03-22T07:59:00.641Z,25.29
2017-03-22T08:00:10.582Z,25.39
2017-03-22T08:01:19.948Z,25.29
2017-03-22T08:02:28.705Z,25.01
2017-03-22T08:03:38.090Z,25.39
2017-03-22T08:04:47.169Z,24.91
2017-03-22T08:05:56.546Z,24.72
2017-03-22T08:07:05.283Z,24.91
2017-03-22T08:08:14.891Z,25.01
2017-03-22T08:09:24.231Z,24.52
2017-03-22T08:10:33.007Z,24.81
2017-03-22T08:11:42.083Z,25.1
2017-03-22T08:12:51.769Z,24.91
2017-03-22T08:14:01.124Z,25.01
2017-03-22T08:15:10.438Z,24.72
2017-03-22T08:16:19.439Z,24.43
2017-03-22T08:17:28.472Z,24.44
2017-03-22T08:18:38.459Z,24.05
2017-03-22T08:19:47.842Z,24.34
2017-03-22T08:20:57.480Z,23.86
2017-03-22T08:22:06.566Z,24.05
2017-03-22T08:23:15.842Z,23.47
2017-03-22T08:24:25.522Z,24.15
2017-03-22T08:25:34.590Z,23.76
2017-03-22T08:26:43.350Z,23.68
2017-03-22T08:27:52.360Z,23.39
2017-03-22T08:29:03.453Z,23.49
2017-03-22T08:30:12.806Z,23.68
2017-03-22T08:31:21.835Z,23.49
2017-03-22T08:32:30.575Z,23.49
2017-03-22T08:33:39.542Z,23.49
2017-03-22T08:34:48.924Z,23.39
2017-03-22T08:35:57.994Z,23.1
2017-03-22T08:37:06.776Z,23.29
2017-03-22T08:38:16.122Z,23.39
2017-03-22T08:39:25.349Z,22.91
2017-03-22T08:40:35.014Z,22.91
2017-03-22T08:41:43.791Z,23.11
2017-03-22T08:42:52.796Z,23.01
2017-03-22T08:44:02.020Z,22.63
2017-03-22T08:45:11.056Z,22.91
2017-03-22T08:46:20.085Z,22.72
2017-03-22T08:47:29.530Z,22.72
2017-03-22T08:48:38.296Z,22.63
2017-03-22T08:49:47.678Z,22.63
2017-03-22T08:50:57.405Z,22.72
2017-03-22T08:52:06.170Z,22.25
2017-03-22T08:53:15.548Z,22.06
2017-03-22T08:54:24.602Z,22.34
2017-03-22T08:55:33.633Z,21.96
2017-03-22T08:56:42.807Z,22.06
2017-03-22T08:57:51.565Z,22.16
2017-03-22T08:59:01.240Z,22.16
2017-03-22T09:00:10.623Z,22.25
2017-03-22T09:01:19.360Z,21.77
2017-03-22T09:02:28.386Z,21.96
2017-03-22T09:03:37.152Z,21.78
2017-03-22T09:04:47.135Z,21.68
2017-03-22T09:05:56.209Z,21.48
2017-03-22T09:07:05.602Z,21.3
2017-03-22T09:08:14.676Z,21.69
2017-03-22T09:09:23.441Z,21.2
2017-03-22T09:10:32.179Z,21.11
2017-03-22T09:11:40.953Z,20.92
2017-03-22T09:12:50.018Z,20.82
2017-03-22T09:13:59.060Z,20.43
2017-03-22T09:15:08.061Z,20.25
2017-03-22T09:16:17.395Z,20.15
2017-03-22T09:17:26.162Z,19.68
2017-03-22T09:18:34.903Z,19.2
2017-03-22T09:19:43.630Z,18.33
2017-03-22T09:20:52.393Z,17.66
2017-03-22T09:22:01.361Z,16.99
2017-03-22T09:23:10.437Z,16.22
2017-03-22T09:24:19.205Z,16.14
2017-03-22T09:25:28.511Z,15.47
2017-03-22T09:26:37.564Z,14.6
2017-03-22T09:27:46.632Z,14.12
2017-03-22T09:28:55.419Z,13.45
2017-03-22T09:30:04.488Z,13.16
2017-03-22T09:31:13.205Z,12.97
2017-03-22T09:32:21.976Z,12.78
2017-03-22T09:33:30.944Z,12.5
2017-03-22T09:34:40.017Z,12.01
2017-03-22T09:35:49.385Z,11.53
2017-03-22T09:36:58.157Z,11.34
2017-03-22T09:38:06.876Z,11.44
2017-03-22T09:39:15.639Z,11.25
2017-03-22T09:40:24.400Z,11.15
2017-03-22T09:41:33.479Z,10.96
2017-03-22T09:42:42.264Z,10.96
2017-03-22T09:43:51.016Z,10.87
2017-03-22T09:44:59.774Z,10.68
2017-03-22T09:46:08.563Z,10.28
2017-03-22T09:47:17.302Z,10.58
2017-03-22T09:48:26.027Z,10.1
2017-03-22T09:49:34.797Z,9.31
2017-03-22T09:50:43.585Z,9.22
2017-03-22T09:51:52.653Z,9.91
2017-03-22T09:53:01.386Z,9.32
2017-03-22T09:54:10.408Z,9.52
2017-03-22T09:55:19.176Z,9.33
2017-03-22T09:56:27.936Z,9.23
2017-03-22T09:57:36.945Z,8.93
2017-03-22T09:58:45.672Z,9.12
2017-03-22T09:59:54.676Z,9.14
2017-03-22T10:01:03.439Z,8.64
2017-03-22T10:02:12.165Z,8.16
2017-03-22T10:03:20.927Z,8.65
2017-03-22T10:04:29.996Z,8.46
2017-03-22T10:05:38.764Z,8.26
2017-03-22T10:06:47.534Z,8.36
2017-03-22T10:07:56.301Z,7.97
2017-03-22T10:09:05.374Z,7.98
2017-03-22T10:10:14.444Z,6.89
2017-03-22T10:11:23.821Z,8.08
2017-03-22T10:12:32.888Z,8.56
2017-03-22T10:13:41.653Z,9.25
2017-03-22T10:14:50.396Z,9.63
2017-03-22T10:15:59.123Z,9.52
2017-03-22T10:17:07.859Z,9.61
2017-03-22T10:18:16.583Z,10.58
2017-03-22T10:19:25.660Z,11.36
2017-03-22T10:20:34.725Z,11.25
2017-03-22T10:21:43.497Z,12.02
2017-03-22T10:22:52.301Z,12.12
2017-03-22T10:24:01.068Z,12.3
2017-03-22T10:25:09.836Z,12.79
2017-03-22T10:26:18.601Z,13.07
2017-03-22T10:27:28.417Z,13.17
2017-03-22T10:28:37.181Z,13.55
2017-03-22T10:29:46.251Z,13.54
2017-03-22T10:30:54.993Z,14.22
2017-03-22T10:32:04.023Z,14.51
2017-03-22T10:33:13.064Z,14.89
2017-03-22T10:34:21.787Z,15.18
2017-03-22T10:35:30.553Z,15.28
2017-03-22T10:36:39.326Z,16.24
2017-03-22T10:37:48.104Z,15.84
2017-03-22T10:38:57.169Z,15.84
2017-03-22T10:40:05.934Z,16.22
2017-03-22T10:41:14.699Z,16.32
2017-03-22T10:42:23.513Z,16.32
2017-03-22T10:43:32.270Z,16.61
2017-03-22T10:44:41.012Z,16.61
2017-03-22T10:45:49.742Z,16.8
2017-03-22T10:46:58.522Z,16.99
2017-03-22T10:48:07.278Z,17.18
2017-03-22T10:49:16.349Z,17.47
2017-03-22T10:50:25.399Z,17.28
2017-03-22T10:51:34.120Z,17.36
2017-03-22T10:52:43.211Z,17.38
2017-03-22T10:53:51.922Z,17.57
2017-03-22T10:55:00.676Z,17.56
2017-03-22T10:56:09.450Z,17.08
2017-03-22T10:57:18.517Z,17.18
2017-03-22T10:58:27.289Z,17.56
2017-03-22T10:59:36.046Z,17.46
2017-03-22T11:00:44.805Z,17.76
2017-03-22T11:01:53.843Z,17.74
2017-03-22T11:03:02.874Z,17.84
2017-03-22T11:04:11.936Z,18.13
2017-03-22T11:05:21.009Z,17.94
2017-03-22T11:06:30.077Z,17.84
2017-03-22T11:07:38.887Z,18.04
2017-03-22T11:08:47.617Z,18.23
2017-03-22T11:09:56.645Z,17.84
2017-03-22T11:11:05.404Z,17.74
2017-03-22T11:12:14.158Z,18.04
2017-03-22T11:13:23.194Z,18.04
2017-03-22T11:14:32.224Z,17.84
2017-03-22T11:15:41.593Z,17.76
2017-03-22T11:16:50.363Z,17.55
2017-03-22T11:17:59.096Z,17.66
2017-03-22T11:19:07.817Z,17.66
2017-03-22T11:20:16.581Z,17.56
2017-03-22T11:21:25.314Z,18.05
2017-03-22T11:22:34.039Z,17.66
2017-03-22T11:23:42.796Z,17.76
2017-03-22T11:24:51.852Z,17.85
2017-03-22T11:26:01.160Z,17.76
2017-03-22T11:27:09.936Z,17.76
2017-03-22T11:28:19.004Z,17.95
2017-03-22T11:29:27.768Z,17.36
2017-03-22T11:30:36.740Z,17.66
2017-03-22T11:31:45.819Z,17.38
2017-03-22T11:32:54.891Z,17.18
2017-03-22T11:34:03.656Z,17.38
2017-03-22T11:35:12.722Z,17.19
2017-03-22T11:36:22.095Z,17.09
2017-03-22T11:37:30.859Z,17.19
2017-03-22T11:38:39.929Z,17.19
2017-03-22T11:39:49.003Z,17.29
2017-03-22T11:40:57.772Z,17.29
2017-03-22T11:42:07.039Z,17.19
2017-03-22T11:43:16.078Z,17.38
2017-03-22T11:44:25.096Z,17.38
2017-03-22T11:45:33.864Z,16.61
2017-03-22T11:46:42.908Z,16.9
2017-03-22T11:47:52.215Z,16.71
2017-03-22T11:49:01.246Z,16.61
2017-03-22T11:50:10.024Z,16.81
2017-03-22T11:51:18.728Z,16.81
2017-03-22T11:52:27.677Z,16.81
2017-03-22T11:53:36.731Z,16.91
2017-03-22T11:54:45.493Z,16.81
2017-03-22T11:55:54.252Z,16.91
2017-03-22T11:57:03.291Z,16.9
2017-03-22T11:58:12.233Z,16.8
2017-03-22T11:59:21.296Z,16.71
2017-03-22T12:00:30.059Z,16.22
2017-03-22T12:01:38.832Z,16.52
2017-03-22T12:02:48.206Z,16.52
2017-03-22T12:03:57.174Z,16.61
2017-03-22T12:05:06.249Z,16.99
2017-03-22T12:06:15.005Z,16.99
2017-03-22T12:07:24.077Z,16.89
2017-03-22T12:08:32.838Z,17.38
2017-03-22T12:09:41.759Z,16.99
2017-03-22T12:10:50.521Z,17.36
2017-03-22T12:11:59.279Z,17.56
2017-03-22T12:13:08.048Z,17.56
2017-03-22T12:14:17.111Z,17.95
2017-03-22T12:15:25.880Z,17.66
2017-03-22T12:16:34.942Z,17.65
2017-03-22T12:17:43.708Z,17.55
2017-03-22T12:18:52.465Z,17.84
2017-03-22T12:20:01.733Z,17.94
2017-03-22T12:21:10.477Z,18.33
2017-03-22T12:22:19.203Z,18.43
2017-03-22T12:23:27.981Z,18.13
2017-03-22T12:24:37.049Z,18.9
2017-03-22T12:25:46.110Z,18.8
2017-03-22T12:26:54.876Z,18.89
2017-03-22T12:28:03.937Z,18.89
2017-03-22T12:29:12.699Z,19.09
2017-03-22T12:30:21.463Z,19.18
2017-03-22T12:31:30.530Z,19.56
2017-03-22T12:32:39.302Z,19.57
2017-03-22T12:33:48.675Z,19.56
2017-03-22T12:34:57.433Z,19.66
2017-03-22T12:36:06.511Z,19.66
2017-03-22T12:37:15.272Z,19.66
2017-03-22T12:38:24.339Z,19.56
2017-03-22T12:39:33.384Z,19.75
2017-03-22T12:40:42.410Z,20.04
2017-03-22T12:41:51.790Z,20.13
2017-03-22T12:43:00.528Z,20.13
2017-03-22T12:44:09.252Z,20.13
2017-03-22T12:45:18.622Z,19.94
2017-03-22T12:46:27.392Z,20.03
2017-03-22T12:47:36.169Z,20.12
2017-03-22T12:48:44.913Z,20.32
2017-03-22T12:49:54.241Z,20.51
2017-03-22T12:51:03.307Z,20.51
2017-03-22T12:52:12.081Z,20.51
2017-03-22T12:53:20.841Z,20.41
2017-03-22T12:54:29.611Z,20.89
2017-03-22T12:55:38.690Z,20.61
2017-03-22T12:56:47.733Z,20.8
2017-03-22T12:57:56.457Z,20.7
2017-03-22T12:59:05.416Z,20.7
2017-03-22T13:00:14.488Z,20.41
2017-03-22T13:01:23.222Z,20.61
2017-03-22T13:02:32.325Z,20.51
2017-03-22T13:03:41.402Z,20.31
2017-03-22T13:04:50.437Z,20.8
2017-03-22T13:05:59.176Z,20.62
2017-03-22T13:07:08.248Z,20.9
2017-03-22T13:08:17.521Z,20.81
2017-03-22T13:09:26.383Z,20.7
2017-03-22T13:10:35.120Z,21
2017-03-22T13:11:44.154Z,21.09
2017-03-22T13:12:52.925Z,21.09
2017-03-22T13:14:01.726Z,20.7
2017-03-22T13:15:10.493Z,20.8
2017-03-22T13:16:19.568Z,21.09
2017-03-22T13:17:28.938Z,20.8
2017-03-22T13:18:38.612Z,20.8
2017-03-22T13:19:48.293Z,21.09
2017-03-22T13:20:57.057Z,20.8
2017-03-22T13:22:05.801Z,21.19
2017-03-22T13:23:14.527Z,21.09
2017-03-22T13:24:23.602Z,20.99
2017-03-22T13:25:33.273Z,20.8
2017-03-22T13:26:42.649Z,20.89
2017-03-22T13:27:51.716Z,21.09
2017-03-22T13:29:00.782Z,20.99
2017-03-22T13:30:09.551Z,20.89
2017-03-22T13:31:18.317Z,21.19
2017-03-22T13:32:27.685Z,20.89
2017-03-22T13:33:37.358Z,20.89
2017-03-22T13:34:46.433Z,21.09
2017-03-22T13:35:55.784Z,20.8
2017-03-22T13:37:04.511Z,20.8
2017-03-22T13:38:13.569Z,20.99
2017-03-22T13:39:22.345Z,21.19
2017-03-22T13:40:31.415Z,21.28
2017-03-22T13:41:40.498Z,20.99
2017-03-22T13:42:49.562Z,21.19
2017-03-22T13:43:58.598Z,21.09
2017-03-22T13:45:07.613Z,20.99
2017-03-22T13:46:16.634Z,21.19
2017-03-22T13:47:25.980Z,21.09
2017-03-22T13:48:35.303Z,21.09
2017-03-22T13:49:44.049Z,21.19
2017-03-22T13:50:52.780Z,20.99
2017-03-22T13:52:01.845Z,20.99
2017-03-22T13:53:10.578Z,20.99
2017-03-22T13:54:19.318Z,20.8
2017-03-22T13:55:28.048Z,21.28
2017-03-22T13:56:36.771Z,21.57
2017-03-22T13:57:45.636Z,21.48
2017-03-22T13:58:54.401Z,21.67
2017-03-22T14:00:03.176Z,21.77
2017-03-22T14:01:11.943Z,21.86
2017-03-22T14:02:20.995Z,21.57
2017-03-22T14:03:30.328Z,21.67
2017-03-22T14:04:39.087Z,21.96
2017-03-22T14:05:48.434Z,21.27
2017-03-22T14:06:57.459Z,21.85
2017-03-22T14:08:06.745Z,21.75
2017-03-22T14:09:15.469Z,21.77
2017-03-22T14:10:24.222Z,21.75
2017-03-22T14:11:32.986Z,22.14
2017-03-22T14:12:41.783Z,22.14
2017-03-22T14:13:50.850Z,21.85
2017-03-22T14:14:59.927Z,21.95
2017-03-22T14:16:08.986Z,22.05
2017-03-22T14:17:17.721Z,22.05
2017-03-22T14:18:26.439Z,22.05
2017-03-22T14:19:35.208Z,22.05
2017-03-22T14:20:43.977Z,22.43
2017-03-22T14:21:53.043Z,22.14
2017-03-22T14:23:01.806Z,21.66
2017-03-22T14:24:10.569Z,22.43
2017-03-22T14:25:19.325Z,22.53
2017-03-22T14:26:28.402Z,22.24
2017-03-22T14:27:37.463Z,22.05
2017-03-22T14:28:46.712Z,22.63
2017-03-22T14:29:55.439Z,22.63
2017-03-22T14:31:04.199Z,22.63
2017-03-22T14:32:12.966Z,22.43
2017-03-22T14:33:21.727Z,22.72
2017-03-22T14:34:30.457Z,22.53
2017-03-22T14:35:39.183Z,22.43
2017-03-22T14:36:48.348Z,22.63
2017-03-22T14:37:57.083Z,22.52
2017-03-22T14:39:06.431Z,22.71
2017-03-22T14:40:15.408Z,22.81
2017-03-22T14:41:24.482Z,22.82
2017-03-22T14:42:33.554Z,22.81
2017-03-22T14:43:42.622Z,23.1
2017-03-22T14:44:52.272Z,23
2017-03-22T14:46:01.297Z,22.81
2017-03-22T14:47:10.664Z,23
2017-03-22T14:48:19.729Z,23.1
2017-03-22T14:49:28.495Z,23
2017-03-22T14:50:37.268Z,23
2017-03-22T14:51:46.150Z,23.19
2017-03-22T14:52:54.915Z,23.39
2017-03-22T14:54:04.311Z,23.19
2017-03-22T14:55:13.070Z,23
2017-03-22T14:56:22.439Z,23.1
2017-03-22T14:57:31.200Z,23.1